Dades meteomassalio
Diari Summary for Febrer 2, 2017 Units:  Metric    English   Both
« Previous Day
Next Day »
Diari Semanal Mensual Anual Personalitzat
  Maxima: Minima: Mijana:
Temperatura: 12.1 °C 2.4 °C 6.9 °C
Rosada: 10.2 °C 1.4 °C 5.6 °C
Humitat: 94 % 79 % 91 %
Velocitat del vent: 69.2 km/h 0.0 km/h 2.6 km/h
Racha vent: 69.2 km/h - -
Vent:- - WSW
Pressio: 1018.5 hPa 1011.4 hPa -
Pluja: 5.1 mm    
Historical Graphs
 
 
Tabular Data for Febrer 2, 2017
Time Temperature Dew Point Pressure Wind Wind Speed Wind Gust Humidity Rainfall Rate (Hourly) solar Conditions
00:04 6.4 °C 5.4 °C 1017.5 hPa West 11.1 km/h   93 % 0.0 mm 0.0 W/m2 RA
00:09 6.6 °C 5.6 °C 1017.5 hPa Calm     93 % 0.0 mm 0.0 W/m2 CLR
00:14 6.5 °C 5.3 °C 1017.5 hPa Calm     92 % 0.0 mm 0.0 W/m2 CLR
00:19 6.4 °C 5.4 °C 1017.5 hPa Calm     93 % 0.0 mm 0.0 W/m2 CLR
00:24 6.4 °C 5.3 °C 1017.5 hPa Calm     93 % 0.0 mm 0.0 W/m2 CLR
00:29 6.3 °C 5.1 °C 1017.5 hPa Calm     92 % 0.0 mm 0.0 W/m2 CLR
00:34 6.2 °C 5.0 °C 1017.5 hPa Calm     92 % 0.0 mm 0.0 W/m2 CLR
00:39 6.1 °C 4.8 °C 1017.2 hPa Calm     92 % 0.0 mm 0.0 W/m2 CLR
00:44 6.0 °C 4.8 °C 1017.5 hPa Calm     92 % 0.0 mm 0.0 W/m2 CLR
00:49 5.9 °C 4.7 °C 1017.2 hPa Calm     92 % 0.0 mm 0.0 W/m2 CLR
00:54 5.8 °C 4.6 °C 1017.2 hPa Calm     92 % 0.0 mm 0.0 W/m2 CLR
00:59 5.7 °C 4.4 °C 1017.2 hPa Calm     92 % 0.0 mm 0.0 W/m2 CLR
01:04 5.7 °C 4.7 °C 1017.2 hPa SSW 5.6 km/h 5.6 km/h 93 % 0.0 mm 0.0 W/m2 CLR
01:09 5.8 °C 4.8 °C 1017.2 hPa Calm     93 % 0.0 mm 0.0 W/m2 CLR
01:14 5.7 °C 4.4 °C 1017.2 hPa Calm     92 % 0.0 mm 0.0 W/m2 CLR
01:19 5.4 °C 4.2 °C 1017.2 hPa Calm     92 % 0.0 mm 0.0 W/m2 CLR
01:24 5.3 °C 4.1 °C 1017.2 hPa Calm     92 % 0.0 mm 0.0 W/m2 CLR
01:29 5.2 °C 4.0 °C 1017.2 hPa Calm     92 % 0.0 mm 0.0 W/m2 CLR
01:34 5.1 °C 4.1 °C 1017.2 hPa Calm     93 % 0.0 mm 0.0 W/m2 CLR
01:39 5.3 °C 4.2 °C 1017.2 hPa SW 3.7 km/h 3.7 km/h 93 % 0.0 mm 0.0 W/m2 CLR
01:44 5.2 °C 4.2 °C 1017.2 hPa Calm     93 % 0.0 mm 0.0 W/m2 CLR
01:49 5.2 °C 4.2 °C 1017.2 hPa Calm     93 % 0.0 mm 0.0 W/m2 CLR
01:54 5.2 °C 4.2 °C 1017.2 hPa Calm     93 % 0.0 mm 0.0 W/m2 CLR
01:59 5.2 °C 4.2 °C 1017.2 hPa Calm     93 % 0.0 mm 0.0 W/m2 CLR
02:04 5.1 °C 4.0 °C 1017.2 hPa Calm     93 % 0.0 mm 0.0 W/m2 CLR
02:09 4.8 °C 3.6 °C 1017.2 hPa Calm     92 % 0.0 mm 0.0 W/m2 CLR
02:14 4.7 °C 3.7 °C 1016.8 hPa Calm     93 % 0.0 mm 0.0 W/m2 CLR
02:19 4.5 °C 3.3 °C 1017.2 hPa Calm     92 % 0.0 mm 0.0 W/m2 CLR
02:24 4.6 °C 3.5 °C 1017.2 hPa Calm     93 % 0.0 mm 0.0 W/m2 CLR
02:29 4.5 °C 3.4 °C 1016.8 hPa Calm     93 % 0.0 mm 0.0 W/m2 CLR
02:34 4.3 °C 3.3 °C 1016.8 hPa Calm     93 % 0.0 mm 0.0 W/m2 CLR
02:39 4.2 °C 3.2 °C 1016.8 hPa Calm     93 % 0.0 mm 0.0 W/m2 CLR
02:44 4.3 °C 3.2 °C 1016.8 hPa Calm     93 % 0.0 mm 0.0 W/m2 CLR
02:46 4.2 °C 3.2 °C 1016.8 hPa Calm     93 % 0.0 mm 0.0 W/m2 CLR
02:51 4.2 °C 3.2 °C 1016.8 hPa Calm     93 % 0.0 mm 0.0 W/m2 CLR
02:56 4.3 °C 3.3 °C 1016.8 hPa Calm     93 % 0.0 mm 0.0 W/m2 CLR
03:01 4.5 °C 3.4 °C 1016.8 hPa Calm     93 % 0.0 mm 0.0 W/m2 CLR
03:06 4.6 °C 3.5 °C 1016.8 hPa Calm     93 % 0.0 mm 0.0 W/m2 CLR
03:11 4.4 °C 3.4 °C 1016.8 hPa Calm     93 % 0.0 mm 0.0 W/m2 CLR
03:16 4.2 °C 3.2 °C 1016.8 hPa Calm     93 % 0.0 mm 0.0 W/m2 CLR
03:21 4.1 °C 3.0 °C 1016.8 hPa Calm     93 % 0.0 mm 0.0 W/m2 CLR
03:26 4.1 °C 3.0 °C 1016.5 hPa Calm     93 % 0.0 mm 0.0 W/m2 CLR
03:31 4.1 °C 3.0 °C 1016.5 hPa Calm     93 % 0.0 mm 0.0 W/m2 CLR
03:36 4.1 °C 3.0 °C 1016.5 hPa Calm     93 % 0.0 mm 0.0 W/m2 CLR
03:41 4.1 °C 3.0 °C 1016.5 hPa Calm     93 % 0.0 mm 0.0 W/m2 CLR
03:46 3.9 °C 2.9 °C 1016.5 hPa Calm     93 % 0.0 mm 0.0 W/m2 CLR
03:51 3.8 °C 2.8 °C 1016.5 hPa Calm     93 % 0.0 mm 0.0 W/m2 CLR
03:56 3.8 °C 2.7 °C 1016.5 hPa Calm     93 % 0.0 mm 0.0 W/m2 CLR
04:01 3.8 °C 2.7 °C 1016.5 hPa Calm     93 % 0.0 mm 0.0 W/m2 CLR
04:06 3.8 °C 2.8 °C 1016.5 hPa Calm     93 % 0.0 mm 0.0 W/m2 CLR
04:11 3.8 °C 2.8 °C 1016.5 hPa Calm     93 % 0.0 mm 0.0 W/m2 CLR
04:16 3.8 °C 2.7 °C 1016.1 hPa Calm     93 % 0.0 mm 0.0 W/m2 CLR
04:21 3.9 °C 2.8 °C 1016.1 hPa SW 5.6 km/h 5.6 km/h 93 % 0.0 mm 0.0 W/m2 CLR
04:26 3.9 °C 2.9 °C 1016.1 hPa SW 7.4 km/h 7.4 km/h 93 % 0.0 mm 0.0 W/m2 CLR
04:31 3.9 °C 2.9 °C 1016.1 hPa SSW 5.6 km/h   93 % 0.0 mm 0.0 W/m2 CLR
04:37 3.9 °C 2.9 °C 1016.1 hPa Calm     93 % 0.0 mm 0.0 W/m2 CLR
04:42 3.9 °C 2.8 °C 1016.1 hPa Calm     93 % 0.0 mm 0.0 W/m2 CLR
04:47 3.8 °C 2.8 °C 1016.1 hPa Calm     93 % 0.0 mm 0.0 W/m2 CLR
04:52 3.8 °C 2.7 °C 1016.1 hPa Calm     93 % 0.0 mm 0.0 W/m2 CLR
04:57 3.7 °C 2.7 °C 1016.1 hPa Calm     93 % 0.0 mm 0.0 W/m2 CLR
05:02 3.6 °C 2.6 °C 1016.1 hPa Calm     93 % 0.0 mm 0.0 W/m2 CLR
05:07 3.6 °C 2.6 °C 1015.8 hPa Calm     93 % 0.0 mm 0.0 W/m2 CLR
05:12 3.8 °C 2.7 °C 1015.8 hPa Calm     93 % 0.0 mm 0.0 W/m2 CLR
05:17 3.8 °C 2.7 °C 1015.8 hPa Calm     93 % 0.0 mm 0.0 W/m2 CLR
05:22 3.7 °C 2.7 °C 1015.8 hPa Calm     93 % 0.0 mm 0.0 W/m2 CLR
05:27 3.6 °C 2.6 °C 1015.8 hPa Calm     93 % 0.0 mm 0.0 W/m2 CLR
05:32 3.6 °C 2.6 °C 1015.8 hPa Calm     93 % 0.0 mm 0.0 W/m2 CLR
05:37 3.4 °C 2.4 °C 1015.8 hPa Calm     93 % 0.0 mm 0.0 W/m2 CLR
05:42 3.3 °C 2.3 °C 1015.8 hPa Calm     93 % 0.0 mm 0.0 W/m2 CLR
05:47 3.3 °C 2.3 °C 1015.8 hPa Calm     93 % 0.0 mm 0.0 W/m2 CLR
05:52 3.2 °C 2.2 °C 1015.5 hPa Calm     93 % 0.0 mm 0.0 W/m2 CLR
05:57 3.2 °C 2.2 °C 1015.5 hPa Calm     93 % 0.0 mm 0.0 W/m2 CLR
06:02 3.2 °C 2.2 °C 1015.5 hPa Calm     93 % 0.0 mm 0.0 W/m2 CLR
06:07 3.2 °C 2.2 °C 1015.5 hPa Calm     93 % 0.0 mm 0.0 W/m2 CLR
06:12 3.3 °C 2.4 °C 1015.8 hPa Calm     94 % 0.0 mm 0.0 W/m2 CLR
06:17 3.2 °C 2.2 °C 1015.8 hPa Calm     93 % 0.0 mm 0.0 W/m2 CLR
06:22 3.1 °C 2.1 °C 1015.8 hPa Calm     93 % 0.0 mm 0.0 W/m2 CLR
06:27 3.0 °C 2.0 °C 1015.8 hPa Calm     93 % 0.0 mm 0.0 W/m2 CLR
06:32 2.9 °C 1.9 °C 1015.8 hPa Calm     93 % 0.0 mm 0.0 W/m2 CLR
06:37 2.9 °C 1.9 °C 1015.8 hPa Calm     93 % 0.0 mm 0.0 W/m2 CLR
06:42 2.9 °C 1.9 °C 1015.8 hPa Calm     93 % 0.0 mm 0.0 W/m2 CLR
06:47 2.9 °C 1.9 °C 1015.8 hPa Calm     93 % 0.0 mm 0.0 W/m2 CLR
06:52 2.8 °C 1.8 °C 1015.8 hPa Calm     93 % 0.0 mm 0.0 W/m2 CLR
06:57 2.8 °C 1.8 °C 1015.8 hPa Calm     93 % 0.0 mm 0.0 W/m2 CLR
07:02 2.7 °C 1.7 °C 1015.8 hPa Calm     93 % 0.0 mm 0.0 W/m2 CLR
07:07 2.8 °C 1.8 °C 1015.8 hPa Calm     93 % 0.0 mm 0.0 W/m2 CLR
07:12 2.7 °C 1.7 °C 1015.8 hPa Calm     93 % 0.0 mm 0.0 W/m2 CLR
07:17 2.7 °C 1.7 °C 1015.8 hPa Calm     93 % 0.0 mm 0.0 W/m2 CLR
07:22 2.7 °C 1.8 °C 1015.8 hPa Calm     94 % 0.0 mm 0.0 W/m2 CLR
07:27 2.6 °C 1.7 °C 1015.8 hPa Calm     94 % 0.0 mm 0.0 W/m2 CLR
07:32 2.6 °C 1.7 °C 1015.8 hPa Calm     94 % 0.0 mm 0.0 W/m2 CLR
07:37 2.6 °C 1.6 °C 1015.8 hPa Calm     93 % 0.0 mm 0.0 W/m2 CLR
07:42 2.6 °C 1.7 °C 1015.8 hPa Calm     94 % 0.0 mm 0.0 W/m2 CLR
07:47 2.4 °C 1.4 °C 1015.8 hPa Calm     93 % 0.3 mm 0.0 W/m2 RA
07:52 2.4 °C 1.6 °C 1016.1 hPa Calm     94 % 0.3 mm 0.0 W/m2 CLR
07:57 2.5 °C 1.6 °C 1015.8 hPa Calm     94 % 0.3 mm 0.0 W/m2 CLR
08:02 2.6 °C 1.7 °C 1015.8 hPa Calm     94 % 0.3 mm 7.0 W/m2 OVC
08:07 2.7 °C 1.8 °C 1015.8 hPa Calm     94 % 0.3 mm 14.0 W/m2 OVC
08:12 2.9 °C 2.0 °C 1016.1 hPa Calm     94 % 0.3 mm 21.0 W/m2 BKN
08:17 2.9 °C 2.0 °C 1015.8 hPa Calm     94 % 0.3 mm 21.0 W/m2 BKN
08:22 2.9 °C 2.0 °C 1015.8 hPa Calm     94 % 0.3 mm 26.0 W/m2 BKN
08:27 2.9 °C 2.1 °C 1015.8 hPa Calm     94 % 0.3 mm 25.0 W/m2 BKN
08:32 3.1 °C 2.2 °C 1015.8 hPa Calm     94 % 0.3 mm 30.0 W/m2 BKN
08:37 3.2 °C 2.3 °C 1015.8 hPa Calm     94 % 0.3 mm 33.0 W/m2 BKN
08:42 3.4 °C 2.5 °C 1015.8 hPa Calm     94 % 0.3 mm 33.0 W/m2 BKN
08:47 3.6 °C 2.7 °C 1015.5 hPa Calm     94 % 0.0 mm 30.0 W/m2 BKN
08:52 3.7 °C 2.8 °C 1015.5 hPa Calm     94 % 0.0 mm 30.0 W/m2 BKN
08:57 3.8 °C 2.9 °C 1015.5 hPa Calm     94 % 0.0 mm 28.0 W/m2 BKN
08:59 3.8 °C 2.9 °C 1015.5 hPa Calm     94 % 0.0 mm 28.0 W/m2 BKN
09:04 3.9 °C 3.0 °C 1015.5 hPa Calm     94 % 0.0 mm 25.0 W/m2 BKN
09:09 4.0 °C 3.1 °C 1015.5 hPa Calm     94 % 0.0 mm 23.0 W/m2 BKN
09:14 4.1 °C 3.2 °C 1015.5 hPa Calm     94 % 0.0 mm 25.0 W/m2 BKN
09:19 4.1 °C 3.2 °C 1015.5 hPa Calm     94 % 0.0 mm 25.0 W/m2 BKN
09:24 4.1 °C 3.2 °C 1015.5 hPa Calm     94 % 0.0 mm 30.0 W/m2 BKN
09:29 4.2 °C 3.3 °C 1015.5 hPa Calm     94 % 0.0 mm 37.0 W/m2 BKN
09:34 4.4 °C 3.5 °C 1015.5 hPa Calm     94 % 0.0 mm 33.0 W/m2 BKN
09:39 4.5 °C 3.6 °C 1015.8 hPa Calm     94 % 0.0 mm 28.0 W/m2 BKN
09:44 4.6 °C 3.7 °C 1015.8 hPa Calm     94 % 0.0 mm 26.0 W/m2 BKN
09:49 4.6 °C 3.7 °C 1015.8 hPa Calm     94 % 0.0 mm 33.0 W/m2 BKN
09:54 4.7 °C 3.8 °C 1015.8 hPa Calm     94 % 0.0 mm 42.0 W/m2 BKN
09:59 4.8 °C 3.9 °C 1015.8 hPa Calm     94 % 0.0 mm 46.0 W/m2 BKN
10:04 4.9 °C 4.1 °C 1015.8 hPa Calm     94 % 0.0 mm 56.0 W/m2 SCT
10:09 5.1 °C 4.2 °C 1015.8 hPa Calm     94 % 0.0 mm 65.0 W/m2 SCT
10:14 5.3 °C 4.4 °C 1015.8 hPa Calm     94 % 0.0 mm 72.0 W/m2 SCT
10:19 5.4 °C 4.5 °C 1015.8 hPa Calm     94 % 0.0 mm 83.0 W/m2 FEW
10:24 5.6 °C 4.7 °C 1015.8 hPa Calm     94 % 0.0 mm 93.0 W/m2 FEW
10:29 5.7 °C 4.8 °C 1015.8 hPa Calm     94 % 0.0 mm 100.0 W/m2 CLR
10:34 5.9 °C 5.0 °C 1015.8 hPa Calm     94 % 0.0 mm 111.0 W/m2 CLR
10:39 6.1 °C 5.2 °C 1015.8 hPa Calm     94 % 0.0 mm 120.0 W/m2 CLR
10:44 6.1 °C 5.1 °C 1015.8 hPa Calm     93 % 0.0 mm 100.0 W/m2 CLR
10:49 6.2 °C 5.2 °C 1015.8 hPa Calm     93 % 0.0 mm 67.0 W/m2 CLR
10:54 6.3 °C 5.3 °C 1015.8 hPa Calm     93 % 0.3 mm 60.0 W/m2 RA
10:59 6.4 °C 5.4 °C 1015.8 hPa Calm     93 % 0.3 mm 56.0 W/m2 SCT
11:04 6.6 °C 5.7 °C 1015.8 hPa Calm     94 % 0.5 mm 53.0 W/m2 RA
11:09 6.8 °C 5.8 °C 1015.8 hPa Calm     93 % 0.5 mm 46.0 W/m2 RA
11:14 6.9 °C 5.8 °C 1015.8 hPa Calm     93 % 0.8 mm 44.0 W/m2 RA
11:19 6.9 °C 5.9 °C 1015.8 hPa Calm     93 % 1.0 mm 51.0 W/m2 RA
11:24 7.0 °C 5.9 °C 1016.1 hPa Calm     93 % 1.3 mm 62.0 W/m2 RA
11:29 7.1 °C 6.0 °C 1015.8 hPa Calm     93 % 1.5 mm 69.0 W/m2 RA
11:34 7.2 °C 6.2 °C 1015.8 hPa Calm     93 % 1.5 mm 76.0 W/m2 FEW
11:39 7.3 °C 6.2 °C 1015.8 hPa Calm     93 % 1.8 mm 97.0 W/m2 RA
11:44 7.3 °C 6.3 °C 1015.8 hPa East 3.7 km/h 3.7 km/h 93 % 2.0 mm 120.0 W/m2 RA
11:49 7.4 °C 6.4 °C 1015.8 hPa Calm     93 % 2.0 mm 127.0 W/m2 CLR
11:54 7.6 °C 6.6 °C 1015.8 hPa Calm     93 % 1.8 mm 109.0 W/m2 CLR
11:59 7.8 °C 6.7 °C 1015.8 hPa Calm     93 % 2.0 mm 97.0 W/m2 RA
12:04 7.9 °C 6.8 °C 1015.5 hPa Calm     93 % 1.8 mm 118.0 W/m2 CLR
12:10 8.0 °C 6.9 °C 1015.5 hPa Calm     93 % 1.5 mm 123.0 W/m2 CLR
12:15 8.1 °C 7.0 °C 1015.5 hPa Calm     93 % 1.5 mm 142.0 W/m2 CLR
12:20 8.2 °C 7.2 °C 1015.1 hPa Calm     93 % 1.3 mm 137.0 W/m2 CLR
12:25 8.4 °C 7.3 °C 1015.1 hPa Calm     93 % 1.0 mm 105.0 W/m2 CLR
12:30 8.6 °C 7.6 °C 1015.1 hPa Calm     93 % 0.8 mm 111.0 W/m2 CLR
12:35 8.7 °C 7.6 °C 1015.1 hPa Calm     93 % 0.8 mm 134.0 W/m2 CLR
12:40 8.8 °C 7.7 °C 1014.8 hPa NE 5.6 km/h 5.6 km/h 93 % 0.5 mm 104.0 W/m2 CLR
12:45 8.9 °C 7.8 °C 1014.8 hPa ENE 1.9 km/h   93 % 0.3 mm 109.0 W/m2 CLR
12:50 9.1 °C 8.0 °C 1014.8 hPa ESE 9.7 km/h 9.7 km/h 93 % 0.3 mm 137.0 W/m2 CLR
12:55 9.2 °C 8.1 °C 1014.4 hPa Calm     93 % 0.3 mm 144.0 W/m2 CLR
13:00 9.3 °C 8.2 °C 1014.4 hPa Calm   0.2 km/h 93 % 0.0 mm 100.0 W/m2 CLR
13:05 9.3 °C 8.3 °C 1014.4 hPa ENE 5.6 km/h 5.6 km/h 93 % 0.0 mm 84.0 W/m2 CLR
13:10 9.4 °C 8.4 °C 1014.4 hPa Calm   1.3 km/h 93 % 0.0 mm 77.0 W/m2 CLR
13:15 9.6 °C 8.3 °C 1014.4 hPa Calm     92 % 0.0 mm 69.0 W/m2 FEW
13:20 9.6 °C 8.4 °C 1014.4 hPa Calm     92 % 0.0 mm 70.0 W/m2 FEW
13:25 9.7 °C 8.6 °C 1014.1 hPa Calm     93 % 0.0 mm 100.0 W/m2 FEW
13:30 9.7 °C 8.5 °C 1014.1 hPa Calm     92 % 0.0 mm 120.0 W/m2 CLR
13:35 9.8 °C 8.6 °C 1013.8 hPa Calm     92 % 0.0 mm 132.0 W/m2 CLR
13:40 9.9 °C 8.7 °C 1013.8 hPa Calm     92 % 0.0 mm 149.0 W/m2 CLR
13:45 10.0 °C 8.8 °C 1013.8 hPa Calm     92 % 0.0 mm 162.0 W/m2 CLR
13:50 10.1 °C 8.9 °C 1013.4 hPa Calm     92 % 0.0 mm 171.0 W/m2 CLR
13:55 10.2 °C 8.8 °C 1013.4 hPa Calm     91 % 0.0 mm 165.0 W/m2 CLR
14:00 10.3 °C 8.9 °C 1013.1 hPa Calm     91 % 0.0 mm 139.0 W/m2 CLR
14:05 10.4 °C 9.1 °C 1013.1 hPa Calm     91 % 0.0 mm 130.0 W/m2 CLR
14:10 10.5 °C 9.1 °C 1013.1 hPa Calm     91 % 0.0 mm 144.0 W/m2 CLR
14:15 10.6 °C 9.0 °C 1013.1 hPa Calm     90 % 0.0 mm 158.0 W/m2 CLR
14:20 10.7 °C 9.2 °C 1013.1 hPa Calm     90 % 0.0 mm 160.0 W/m2 CLR
14:25 10.7 °C 9.0 °C 1013.1 hPa Calm     89 % 0.0 mm 158.0 W/m2 CLR
14:30 10.8 °C 9.1 °C 1012.8 hPa Calm     89 % 0.0 mm 155.0 W/m2 CLR
14:35 10.9 °C 9.2 °C 1012.4 hPa Calm     89 % 0.0 mm 158.0 W/m2 CLR
14:40 10.9 °C 9.3 °C 1012.4 hPa Calm     90 % 0.0 mm 165.0 W/m2 CLR
14:45 10.9 °C 9.4 °C 1012.4 hPa Calm     90 % 0.0 mm 176.0 W/m2 CLR
14:50 11.1 °C 9.6 °C 1012.4 hPa Calm     90 % 0.0 mm 193.0 W/m2 CLR
14:55 11.2 °C 9.7 °C 1012.4 hPa Calm     90 % 0.0 mm 209.0 W/m2 CLR
15:00 11.3 °C 9.8 °C 1012.1 hPa Calm     90 % 0.0 mm 225.0 W/m2 CLR
15:05 11.4 °C 9.9 °C 1012.1 hPa Calm     90 % 0.0 mm 213.0 W/m2 CLR
15:10 11.5 °C 9.9 °C 1011.7 hPa Calm     90 % 0.0 mm 202.0 W/m2 CLR
15:15 11.6 °C 9.8 °C 1011.7 hPa Calm     89 % 0.0 mm 236.0 W/m2 CLR
15:20 11.6 °C 10.0 °C 1011.4 hPa Calm     90 % 0.0 mm 232.0 W/m2 CLR
15:25 11.7 °C 10.1 °C 1011.7 hPa Calm     90 % 0.0 mm 225.0 W/m2 CLR
15:30 11.8 °C 10.1 °C 1011.7 hPa Calm     89 % 0.0 mm 190.0 W/m2 CLR
15:35 11.9 °C 10.1 °C 1011.7 hPa Calm     89 % 0.0 mm 156.0 W/m2 CLR
15:40 11.9 °C 10.2 °C 1011.4 hPa Calm     89 % 0.0 mm 141.0 W/m2 CLR
15:45 11.9 °C 9.9 °C 1011.7 hPa Calm     88 % 0.0 mm 135.0 W/m2 CLR
15:50 11.9 °C 10.0 °C 1011.7 hPa Calm     88 % 0.0 mm 144.0 W/m2 CLR
15:55 11.9 °C 9.8 °C 1011.7 hPa Calm     87 % 0.0 mm 146.0 W/m2 CLR
16:00 12.0 °C 10.1 °C 1011.7 hPa Calm     88 % 0.0 mm 134.0 W/m2 CLR
16:05 12.0 °C 10.1 °C 1011.7 hPa Calm     88 % 0.0 mm 125.0 W/m2 CLR
16:10 12.1 °C 10.1 °C 1011.7 hPa Calm     88 % 0.0 mm 109.0 W/m2 CLR
16:15 12.1 °C 10.1 °C 1011.7 hPa Calm     88 % 0.0 mm 109.0 W/m2 CLR
16:20 12.1 °C 10.2 °C 1011.7 hPa Calm     88 % 0.0 mm 97.0 W/m2 CLR
16:25 12.1 °C 10.2 °C 1011.7 hPa Calm     88 % 0.0 mm 83.0 W/m2 CLR
16:30 12.1 °C 9.9 °C 1011.7 hPa Calm     87 % 0.0 mm 72.0 W/m2 FEW
16:35 12.1 °C 10.1 °C 1012.1 hPa Calm     88 % 0.0 mm 67.0 W/m2 FEW
16:40 12.1 °C 9.9 °C 1012.1 hPa Calm     87 % 0.0 mm 67.0 W/m2 FEW
16:46 12.1 °C 9.9 °C 1012.1 hPa Calm     87 % 0.0 mm 54.0 W/m2 SCT
16:51 12.1 °C 9.9 °C 1012.1 hPa Calm     87 % 0.0 mm 49.0 W/m2 SCT
16:56 12.1 °C 9.9 °C 1012.1 hPa Calm     87 % 0.0 mm 56.0 W/m2 SCT
17:01 12.1 °C 9.9 °C 1011.7 hPa Calm     87 % 0.0 mm 51.0 W/m2 SCT
17:06 12.1 °C 10.1 °C 1012.1 hPa Calm     88 % 0.0 mm 44.0 W/m2 SCT
17:11 12.0 °C 10.1 °C 1012.1 hPa Calm     88 % 0.0 mm 44.0 W/m2 SCT
17:16 11.9 °C 10.0 °C 1011.7 hPa Calm     88 % 0.0 mm 40.0 W/m2 BKN
17:21 11.9 °C 9.9 °C 1011.7 hPa Calm     88 % 0.0 mm 35.0 W/m2 BKN
17:26 11.9 °C 10.1 °C 1011.7 hPa SSW 9.3 km/h 9.3 km/h 89 % 0.0 mm 33.0 W/m2 BKN
17:31 11.9 °C 10.1 °C 1011.7 hPa SSE 6.4 km/h 6.4 km/h 89 % 0.0 mm 35.0 W/m2 BKN
17:36 11.9 °C 9.9 °C 1011.7 hPa SSE 3.7 km/h   88 % 0.0 mm 33.0 W/m2 BKN
17:41 11.9 °C 9.9 °C 1011.7 hPa Calm     88 % 0.0 mm 28.0 W/m2 BKN
17:46 11.9 °C 10.0 °C 1012.1 hPa Calm     88 % 0.0 mm 25.0 W/m2 BKN
17:51 11.9 °C 9.8 °C 1012.1 hPa Calm     87 % 0.0 mm 23.0 W/m2 BKN
17:56 11.9 °C 9.8 °C 1012.4 hPa Calm     87 % 0.0 mm 18.0 W/m2 BKN
18:01 11.9 °C 9.8 °C 1012.4 hPa West 5.6 km/h 5.6 km/h 87 % 0.0 mm 11.0 W/m2 BKN
18:06 12.0 °C 9.7 °C 1012.8 hPa SW 11.1 km/h 11.1 km/h 86 % 0.0 mm 5.0 W/m2 BKN
18:11 12.1 °C 9.6 °C 1014.1 hPa WSW 59.5 km/h 59.5 km/h 85 % 0.0 mm 0.0 W/m2 OVC
18:16 10.8 °C 7.7 °C 1015.8 hPa NW 69.2 km/h 69.2 km/h 81 % 0.3 mm 0.0 W/m2 RA
18:21 9.6 °C 7.2 °C 1016.1 hPa NW 51.8 km/h 51.8 km/h 85 % 0.8 mm 0.0 W/m2 RA
18:26 9.1 °C 7.0 °C 1016.1 hPa NW 42.6 km/h 42.6 km/h 87 % 1.5 mm 0.0 W/m2 RA
18:31 8.8 °C 6.9 °C 1016.1 hPa NW 33.3 km/h 33.3 km/h 88 % 2.0 mm 0.0 W/m2 RA
18:36 8.7 °C 7.0 °C 1016.5 hPa NW 31.5 km/h 31.5 km/h 89 % 2.3 mm 0.0 W/m2 RA
18:41 8.7 °C 6.9 °C 1016.5 hPa NW 22.2 km/h 22.2 km/h 89 % 2.3 mm 0.0 W/m2 RA
18:46 8.6 °C 6.9 °C 1016.1 hPa NW 22.2 km/h 22.2 km/h 89 % 2.5 mm 0.0 W/m2 RA
18:51 8.6 °C 6.9 °C 1016.5 hPa NW 20.9 km/h 20.9 km/h 89 % 2.5 mm 0.0 W/m2 CLR
18:56 8.7 °C 7.0 °C 1016.8 hPa NW 18.5 km/h 18.5 km/h 89 % 2.5 mm 0.0 W/m2 CLR
19:01 8.7 °C 6.9 °C 1016.8 hPa WNW 11.1 km/h 11.1 km/h 89 % 2.5 mm 0.0 W/m2 CLR
19:06 8.7 °C 6.8 °C 1016.8 hPa WNW 14.8 km/h 14.8 km/h 88 % 2.5 mm 0.0 W/m2 CLR
19:11 8.8 °C 6.9 °C 1016.8 hPa WNW 18.5 km/h 18.5 km/h 88 % 2.5 mm 0.0 W/m2 CLR
19:16 9.0 °C 6.9 °C 1016.8 hPa WNW 18.5 km/h 18.5 km/h 87 % 2.3 mm 0.0 W/m2 CLR
19:21 9.1 °C 6.9 °C 1017.2 hPa WNW 5.6 km/h 5.6 km/h 86 % 1.8 mm 0.0 W/m2 CLR
19:26 9.0 °C 6.9 °C 1017.2 hPa Calm     87 % 1.3 mm 0.0 W/m2 CLR
19:31 8.7 °C 6.8 °C 1017.2 hPa Calm     88 % 0.5 mm 0.0 W/m2 CLR
19:36 8.5 °C 6.8 °C 1017.2 hPa Calm     89 % 0.5 mm 0.0 W/m2 CLR
19:41 8.4 °C 6.8 °C 1017.2 hPa Calm     90 % 0.3 mm 0.0 W/m2 CLR
19:46 8.3 °C 6.7 °C 1016.8 hPa Calm     90 % 0.0 mm 0.0 W/m2 CLR
19:51 8.1 °C 6.7 °C 1016.8 hPa Calm     91 % 0.0 mm 0.0 W/m2 CLR
19:56 8.0 °C 6.4 °C 1016.8 hPa Calm     90 % 0.0 mm 0.0 W/m2 CLR
20:01 7.9 °C 6.6 °C 1017.2 hPa Calm     91 % 0.0 mm 0.0 W/m2 CLR
20:06 7.7 °C 6.3 °C 1017.5 hPa Calm     91 % 0.0 mm 0.0 W/m2 CLR
20:11 7.7 °C 6.3 °C 1017.2 hPa WSW 9.3 km/h 9.3 km/h 91 % 0.0 mm 0.0 W/m2 CLR
20:16 7.6 °C 6.2 °C 1016.8 hPa WSW 5.6 km/h 5.6 km/h 91 % 0.0 mm 0.0 W/m2 CLR
20:21 7.4 °C 6.1 °C 1016.8 hPa Calm     91 % 0.0 mm 0.0 W/m2 CLR
20:26 7.4 °C 6.2 °C 1017.2 hPa Calm     92 % 0.0 mm 0.0 W/m2 CLR
20:31 7.3 °C 6.1 °C 1016.8 hPa Calm     92 % 0.0 mm 0.0 W/m2 CLR
20:36 7.3 °C 6.1 °C 1016.8 hPa WSW 9.7 km/h 9.7 km/h 92 % 0.0 mm 0.0 W/m2 CLR
20:41 7.3 °C 6.1 °C 1016.8 hPa WSW 14.8 km/h 14.8 km/h 92 % 0.0 mm 0.0 W/m2 CLR
20:46 7.3 °C 6.1 °C 1016.8 hPa WSW 9.3 km/h 9.3 km/h 92 % 0.0 mm 0.0 W/m2 CLR
20:51 7.3 °C 6.1 °C 1017.2 hPa West 5.6 km/h 5.6 km/h 92 % 0.0 mm 0.0 W/m2 CLR
20:56 7.5 °C 6.1 °C 1017.5 hPa Calm     91 % 0.0 mm 0.0 W/m2 CLR
21:01 7.3 °C 5.8 °C 1017.2 hPa Calm     90 % 0.0 mm 0.0 W/m2 CLR
21:06 7.1 °C 5.7 °C 1017.2 hPa Calm     91 % 0.0 mm 0.0 W/m2 CLR
21:11 6.9 °C 5.5 °C 1017.2 hPa Calm     91 % 0.0 mm 0.0 W/m2 CLR
21:16 6.7 °C 5.3 °C 1017.2 hPa Calm     91 % 0.0 mm 0.0 W/m2 CLR
21:21 6.5 °C 5.1 °C 1017.2 hPa Calm     91 % 0.0 mm 0.0 W/m2 CLR
21:26 6.5 °C 5.3 °C 1017.2 hPa Calm     92 % 0.0 mm 0.0 W/m2 CLR
21:31 6.4 °C 5.2 °C 1017.2 hPa Calm     92 % 0.0 mm 0.0 W/m2 CLR
21:36 6.3 °C 5.1 °C 1017.5 hPa Calm     92 % 0.0 mm 0.0 W/m2 CLR
21:41 6.2 °C 5.0 °C 1017.5 hPa Calm     92 % 0.0 mm 0.0 W/m2 CLR
21:46 6.1 °C 4.9 °C 1017.5 hPa Calm     92 % 0.0 mm 0.0 W/m2 CLR
21:51 6.1 °C 4.8 °C 1017.8 hPa Calm     92 % 0.0 mm 0.0 W/m2 CLR
21:56 5.9 °C 4.7 °C 1017.5 hPa Calm     92 % 0.0 mm 0.0 W/m2 CLR
22:01 5.8 °C 4.8 °C 1017.8 hPa Calm     93 % 0.0 mm 0.0 W/m2 CLR
22:06 5.8 °C 4.8 °C 1017.8 hPa Calm     93 % 0.0 mm 0.0 W/m2 CLR
22:11 5.8 °C 4.8 °C 1017.8 hPa Calm     93 % 0.0 mm 0.0 W/m2 CLR
22:16 5.8 °C 4.7 °C 1018.2 hPa Calm     93 % 0.0 mm 0.0 W/m2 CLR
22:22 5.7 °C 4.7 °C 1017.8 hPa WSW 9.7 km/h 9.7 km/h 93 % 0.0 mm 0.0 W/m2 CLR
22:26 5.6 °C 4.6 °C 1017.8 hPa WSW 11.1 km/h 11.1 km/h 93 % 0.0 mm 0.0 W/m2 CLR
22:32 5.8 °C 4.8 °C 1018.2 hPa WSW 3.7 km/h   93 % 0.0 mm 0.0 W/m2 CLR
22:37 6.5 °C 5.4 °C 1018.2 hPa West 11.1 km/h 11.1 km/h 93 % 0.0 mm 0.0 W/m2 CLR
22:42 7.7 °C 6.7 °C 1018.2 hPa WSW 13.0 km/h 13.0 km/h 93 % 0.0 mm 0.0 W/m2 CLR
22:47 7.9 °C 6.0 °C 1018.2 hPa WSW 9.3 km/h 9.3 km/h 88 % 0.0 mm 0.0 W/m2 CLR
22:52 7.6 °C 5.6 °C 1018.5 hPa WSW 1.9 km/h   87 % 0.0 mm 0.0 W/m2 CLR
22:57 7.8 °C 5.9 °C 1018.5 hPa Calm     88 % 0.0 mm 0.0 W/m2 CLR
23:02 7.6 °C 5.6 °C 1018.2 hPa WSW 7.4 km/h 7.4 km/h 87 % 0.0 mm 0.0 W/m2 CLR
23:07 8.3 °C 6.3 °C 1018.5 hPa West 14.8 km/h 14.8 km/h 87 % 0.0 mm 0.0 W/m2 CLR
23:12 9.2 °C 6.3 °C 1018.2 hPa West 16.7 km/h 16.7 km/h 82 % 0.0 mm 0.0 W/m2 CLR
23:17 9.1 °C 6.2 °C 1018.2 hPa West 13.0 km/h 13.0 km/h 82 % 0.0 mm 0.0 W/m2 CLR
23:22 9.2 °C 6.3 °C 1018.2 hPa WSW 7.4 km/h 7.4 km/h 82 % 0.0 mm 0.0 W/m2 CLR
23:27 9.5 °C 6.2 °C 1018.2 hPa West 5.6 km/h 5.6 km/h 80 % 0.0 mm 0.0 W/m2 CLR
23:32 9.5 °C 6.1 °C 1018.2 hPa Calm     79 % 0.0 mm 0.0 W/m2 CLR
23:37 9.1 °C 5.8 °C 1018.2 hPa West 9.7 km/h 9.7 km/h 80 % 0.0 mm 0.0 W/m2 CLR
23:42 9.0 °C 5.9 °C 1018.2 hPa West 7.4 km/h 7.4 km/h 81 % 0.0 mm 0.0 W/m2 CLR
23:47 8.3 °C 5.4 °C 1018.2 hPa Calm     82 % 0.0 mm 0.0 W/m2 CLR
23:52 7.8 °C 5.2 °C 1018.2 hPa Calm     84 % 0.0 mm 0.0 W/m2 CLR
23:57 7.5 °C 5.3 °C 1018.2 hPa Calm     86 % 0.0 mm 0.0 W/m2 CLR
Lo Temps de Massalio
Compliments of Weather Underground - 1.25 mb